createdAt,value
2022-10-05T00:00:59.707Z,12.73
2022-10-05T00:05:02.050Z,12.67
2022-10-05T00:09:13.898Z,12.59
2022-10-05T00:13:23.460Z,12.61
2022-10-05T00:17:29.614Z,12.69
2022-10-05T00:21:33.941Z,12.70
2022-10-05T00:25:36.327Z,12.65
2022-10-05T00:29:39.527Z,12.41
2022-10-05T00:33:42.898Z,12.32
2022-10-05T00:37:47.784Z,12.32
2022-10-05T00:42:07.356Z,12.34
2022-10-05T00:46:33.044Z,12.37
2022-10-05T00:50:42.259Z,12.18
2022-10-05T00:54:53.999Z,12.28
2022-10-05T00:59:11.612Z,12.25
2022-10-05T01:03:36.571Z,12.23
2022-10-05T01:08:00.360Z,12.27
2022-10-05T01:12:33.218Z,12.26
2022-10-05T01:16:45.264Z,12.22
2022-10-05T01:21:05.653Z,12.22
2022-10-05T01:25:20.379Z,12.15
2022-10-05T01:29:23.901Z,12.14
2022-10-05T01:33:33.652Z,11.83
2022-10-05T01:37:42.359Z,11.70
2022-10-05T01:42:00.042Z,11.77
2022-10-05T01:46:39.386Z,11.82
2022-10-05T01:51:00.723Z,11.79
2022-10-05T01:55:05.961Z,11.78
2022-10-05T01:59:33.647Z,11.80
2022-10-05T02:03:47.388Z,11.86
2022-10-05T02:08:00.393Z,11.80
2022-10-05T02:12:13.110Z,11.75
2022-10-05T02:16:28.826Z,11.72
2022-10-05T02:20:35.276Z,11.61
2022-10-05T02:25:14.425Z,11.47
2022-10-05T02:29:21.807Z,11.33
2022-10-05T02:40:12.249Z,11.21
2022-10-05T02:44:21.946Z,11.34
2022-10-05T02:48:36.777Z,11.37
2022-10-05T02:53:13.324Z,11.35
2022-10-05T02:57:42.136Z,11.30
2022-10-05T03:02:13.956Z,11.29
2022-10-05T03:06:22.844Z,11.21
2022-10-05T03:10:34.509Z,11.27
2022-10-05T03:14:59.298Z,11.34
2022-10-05T03:19:32.797Z,11.41
2022-10-05T03:23:51.117Z,11.07
2022-10-05T03:28:03.175Z,11.21
2022-10-05T03:32:17.026Z,11.21
2022-10-05T03:36:26.103Z,11.16
2022-10-05T03:40:44.957Z,11.20
2022-10-05T03:45:02.297Z,11.08
2022-10-05T03:49:17.264Z,11.10
2022-10-05T03:53:27.442Z,11.13
2022-10-05T03:57:36.299Z,11.04
2022-10-05T04:01:48.735Z,10.97
2022-10-05T04:05:56.503Z,10.83
2022-10-05T04:10:02.171Z,10.81
2022-10-05T04:14:11.759Z,10.73
2022-10-05T04:18:32.788Z,10.58
2022-10-05T04:22:46.946Z,10.54
2022-10-05T04:27:00.269Z,10.59
2022-10-05T04:31:07.169Z,10.54
2022-10-05T04:35:33.846Z,10.65
2022-10-05T04:40:00.933Z,10.63
2022-10-05T04:44:15.749Z,10.74
2022-10-05T04:48:27.270Z,10.73
2022-10-05T04:52:57.196Z,10.77
2022-10-05T04:57:02.120Z,10.70
2022-10-05T05:01:28.639Z,10.73
2022-10-05T05:05:48.349Z,10.69
2022-10-05T05:10:18.089Z,10.61
2022-10-05T05:19:46.935Z,10.66
2022-10-05T05:24:21.138Z,10.70
2022-10-05T05:28:52.214Z,10.73
2022-10-05T05:33:21.314Z,10.75
2022-10-05T05:37:41.117Z,10.79
2022-10-05T05:42:34.082Z,10.86
2022-10-05T05:47:02.349Z,10.78
2022-10-05T05:51:14.929Z,10.89
2022-10-05T05:55:29.927Z,10.95
2022-10-05T06:00:02.087Z,11.02
2022-10-05T06:04:13.427Z,11.02
2022-10-05T06:08:27.628Z,11.12
2022-10-05T06:12:41.667Z,11.19
2022-10-05T06:16:54.180Z,11.20
2022-10-05T06:21:31.425Z,11.38
2022-10-05T06:25:54.250Z,11.61
2022-10-05T06:30:05.569Z,11.76
2022-10-05T06:34:37.329Z,11.89
2022-10-05T06:38:52.863Z,11.98
2022-10-05T06:43:02.729Z,12.13
2022-10-05T06:47:17.382Z,12.25
2022-10-05T06:52:22.539Z,12.45
2022-10-05T06:56:30.198Z,12.58
2022-10-05T07:00:40.727Z,12.75
2022-10-05T07:05:00.209Z,12.93
2022-10-05T07:09:02.477Z,13.07
2022-10-05T07:13:42.655Z,13.29
2022-10-05T07:18:12.987Z,13.41
2022-10-05T07:22:30.452Z,13.54
2022-10-05T07:26:46.793Z,13.73
2022-10-05T07:31:03.705Z,13.90
2022-10-05T07:35:57.518Z,14.04
2022-10-05T07:40:21.202Z,14.17
2022-10-05T07:44:36.508Z,14.34
2022-10-05T07:48:57.623Z,14.56
2022-10-05T07:53:21.122Z,14.73
2022-10-05T07:57:53.819Z,14.88
2022-10-05T08:02:22.056Z,15.00
2022-10-05T08:06:33.198Z,15.21
2022-10-05T08:10:38.248Z,15.38
2022-10-05T08:14:46.567Z,15.56
2022-10-05T08:19:07.787Z,15.78
2022-10-05T08:23:22.559Z,15.99
2022-10-05T08:27:48.989Z,16.14
2022-10-05T08:31:58.485Z,16.36
2022-10-05T08:36:14.840Z,16.47
2022-10-05T08:40:35.237Z,16.64
2022-10-05T08:45:12.629Z,16.81
2022-10-05T08:49:42.525Z,17.13
2022-10-05T08:53:50.328Z,17.29
2022-10-05T08:58:19.999Z,17.56
2022-10-05T09:02:41.599Z,17.66
2022-10-05T09:07:07.054Z,17.79
2022-10-05T09:11:37.464Z,17.99
2022-10-05T09:15:42.544Z,18.13
2022-10-05T09:19:53.791Z,18.21
2022-10-05T09:24:48.384Z,18.31
2022-10-05T09:29:06.084Z,18.46
2022-10-05T09:33:42.663Z,18.75
2022-10-05T09:38:07.213Z,18.99
2022-10-05T09:42:09.112Z,19.18
2022-10-05T09:46:14.190Z,19.18
2022-10-05T09:50:56.383Z,19.24
2022-10-05T09:55:10.590Z,19.47
2022-10-05T09:59:38.236Z,19.49
2022-10-05T10:04:10.312Z,19.60
2022-10-05T10:08:24.620Z,19.90
2022-10-05T10:12:36.046Z,20.05
2022-10-05T10:17:02.515Z,20.13
2022-10-05T10:21:20.166Z,20.21
2022-10-05T10:25:37.818Z,20.15
2022-10-05T10:29:43.120Z,20.33
2022-10-05T10:34:00.329Z,20.48
2022-10-05T10:38:28.802Z,20.64
2022-10-05T10:42:40.231Z,20.78
2022-10-05T10:47:08.725Z,21.04
2022-10-05T10:51:17.542Z,21.16
2022-10-05T10:55:38.253Z,21.16
2022-10-05T11:00:08.358Z,21.16
2022-10-05T11:04:40.041Z,21.33
2022-10-05T11:09:08.290Z,21.46
2022-10-05T11:13:33.571Z,21.65
2022-10-05T11:18:10.271Z,21.61
2022-10-05T11:22:40.680Z,21.61
2022-10-05T11:27:05.049Z,21.85
2022-10-05T11:31:45.186Z,22.03
2022-10-05T11:36:09.100Z,22.03
2022-10-05T11:40:51.267Z,22.20
2022-10-05T11:45:31.281Z,22.32
2022-10-05T11:49:33.312Z,22.39
2022-10-05T11:54:06.374Z,22.42
2022-10-05T11:58:32.640Z,22.49
2022-10-05T12:03:14.331Z,22.54
2022-10-05T12:07:35.957Z,22.61
2022-10-05T12:11:54.365Z,22.74
2022-10-05T12:16:10.538Z,22.74
2022-10-05T12:20:23.042Z,22.71
2022-10-05T12:24:30.941Z,22.82
2022-10-05T12:28:43.565Z,22.94
2022-10-05T12:33:02.281Z,23.05
2022-10-05T12:37:42.970Z,23.11
2022-10-05T12:42:18.081Z,23.09
2022-10-05T12:46:51.896Z,23.11
2022-10-05T12:51:04.095Z,23.05
2022-10-05T12:55:21.858Z,23.19
2022-10-05T12:59:27.034Z,23.25
2022-10-05T13:03:46.284Z,23.28
2022-10-05T13:07:58.131Z,23.31
2022-10-05T13:12:19.458Z,23.40
2022-10-05T13:16:37.876Z,23.46
2022-10-05T13:20:50.573Z,23.47
2022-10-05T13:25:17.687Z,23.51
2022-10-05T13:30:07.433Z,23.58
2022-10-05T13:39:27.539Z,23.64
2022-10-05T13:43:58.806Z,23.60
2022-10-05T13:48:13.480Z,23.67
2022-10-05T13:52:43.826Z,23.74
2022-10-05T13:57:01.911Z,23.69
2022-10-05T14:01:41.692Z,23.63
2022-10-05T14:05:55.847Z,23.68
2022-10-05T14:10:00.147Z,23.67
2022-10-05T14:14:26.820Z,23.81
2022-10-05T14:18:32.826Z,23.78
2022-10-05T14:22:41.872Z,23.76
2022-10-05T14:26:51.585Z,23.78
2022-10-05T14:31:02.646Z,23.76
2022-10-05T14:35:11.589Z,23.71
2022-10-05T14:39:15.669Z,23.73
2022-10-05T14:43:20.473Z,23.76
2022-10-05T14:47:24.070Z,23.73
2022-10-05T14:51:30.567Z,23.74
2022-10-05T14:56:03.299Z,23.70
2022-10-05T15:00:13.473Z,23.71
2022-10-05T15:04:30.503Z,23.74
2022-10-05T15:09:00.781Z,23.70
2022-10-05T15:13:24.425Z,23.69
2022-10-05T15:17:35.059Z,23.73
2022-10-05T15:22:04.810Z,23.64
2022-10-05T15:26:43.030Z,23.56
2022-10-05T15:31:02.171Z,23.57
2022-10-05T15:35:16.305Z,23.51
2022-10-05T15:39:34.702Z,23.50
2022-10-05T15:43:55.452Z,23.39
2022-10-05T15:48:16.195Z,23.56
2022-10-05T15:52:39.178Z,23.78
2022-10-05T15:56:52.785Z,23.95
2022-10-05T16:01:02.513Z,24.23
2022-10-05T16:05:19.961Z,24.44
2022-10-05T16:09:35.163Z,24.50
2022-10-05T16:13:59.772Z,24.72
2022-10-05T16:18:20.805Z,24.69
2022-10-05T16:22:43.343Z,24.60
2022-10-05T16:26:54.825Z,24.32
2022-10-05T16:30:58.909Z,24.20
2022-10-05T16:35:38.892Z,23.74
2022-10-05T16:39:52.386Z,23.28
2022-10-05T16:44:07.881Z,22.82
2022-10-05T16:48:17.417Z,22.36
2022-10-05T16:52:23.519Z,21.73
2022-10-05T16:56:34.326Z,21.31
2022-10-05T17:01:01.022Z,20.72
2022-10-05T17:05:34.329Z,20.37
2022-10-05T17:09:54.700Z,20.06
2022-10-05T17:14:30.717Z,19.69
2022-10-05T17:19:13.458Z,19.38
2022-10-05T17:23:29.389Z,19.06
2022-10-05T17:27:32.928Z,18.87
2022-10-05T17:32:09.884Z,18.66
2022-10-05T17:36:18.259Z,18.63
2022-10-05T17:40:29.644Z,18.49
2022-10-05T17:44:35.155Z,18.33
2022-10-05T17:48:49.063Z,18.12
2022-10-05T17:53:52.625Z,17.92
2022-10-05T17:58:19.819Z,17.85
2022-10-05T18:02:36.198Z,17.58
2022-10-05T18:06:41.765Z,17.33
2022-10-05T18:11:11.116Z,17.30
2022-10-05T18:15:21.352Z,17.12
2022-10-05T18:19:23.686Z,16.68
2022-10-05T18:23:29.418Z,16.57
2022-10-05T18:27:45.427Z,16.44
2022-10-05T18:31:59.798Z,16.53
2022-10-05T18:36:22.325Z,16.41
2022-10-05T18:40:47.781Z,16.27
2022-10-05T18:44:57.345Z,16.29
2022-10-05T18:49:24.085Z,16.29
2022-10-05T18:53:31.715Z,16.19
2022-10-05T18:58:09.017Z,16.29
2022-10-05T19:02:20.544Z,16.15
2022-10-05T19:06:28.720Z,15.83
2022-10-05T19:10:50.915Z,15.81
2022-10-05T19:15:01.032Z,15.68
2022-10-05T19:19:35.375Z,15.70
2022-10-05T19:24:04.572Z,15.67
2022-10-05T19:28:33.426Z,15.54
2022-10-05T19:33:17.559Z,15.53
2022-10-05T19:37:44.810Z,15.52
2022-10-05T19:41:56.238Z,15.24
2022-10-05T19:46:27.511Z,15.26
2022-10-05T19:50:32.751Z,15.08
2022-10-05T19:54:35.345Z,15.06
2022-10-05T19:58:39.986Z,15.02
2022-10-05T20:02:42.602Z,14.93
2022-10-05T20:06:44.753Z,14.96
2022-10-05T20:11:08.070Z,14.76
2022-10-05T20:15:37.338Z,14.70
2022-10-05T20:19:58.041Z,14.68
2022-10-05T20:24:11.753Z,14.76
2022-10-05T20:28:30.788Z,14.79
2022-10-05T20:32:33.750Z,14.68
2022-10-05T20:36:35.831Z,14.54
2022-10-05T20:40:39.024Z,14.59
2022-10-05T20:44:41.396Z,14.57
2022-10-05T20:48:43.600Z,14.55
2022-10-05T20:52:45.941Z,14.35
2022-10-05T20:56:47.962Z,14.30
2022-10-05T21:01:08.811Z,14.09
2022-10-05T21:05:10.987Z,13.97
2022-10-05T21:09:19.578Z,13.93
2022-10-05T21:13:21.733Z,13.87
2022-10-05T21:17:23.784Z,13.90
2022-10-05T21:21:27.354Z,13.69
2022-10-05T21:25:29.337Z,13.66
2022-10-05T21:29:31.629Z,13.80
2022-10-05T21:33:33.760Z,13.61
2022-10-05T21:37:36.269Z,13.74
2022-10-05T21:41:38.346Z,13.54
2022-10-05T21:45:41.303Z,13.36
2022-10-05T21:49:43.395Z,13.38
2022-10-05T21:54:11.833Z,13.52
2022-10-05T21:58:15.062Z,13.56
2022-10-05T22:02:17.127Z,13.49
2022-10-05T22:06:19.075Z,13.22
2022-10-05T22:10:21.150Z,13.17
2022-10-05T22:14:23.914Z,13.27
2022-10-05T22:18:26.917Z,13.29
2022-10-05T22:22:30.146Z,13.10
2022-10-05T22:26:32.510Z,13.09
2022-10-05T22:30:35.602Z,13.05
2022-10-05T22:34:37.746Z,13.04
2022-10-05T22:38:39.970Z,12.89
2022-10-05T22:42:42.061Z,12.83
2022-10-05T22:46:44.179Z,12.84
2022-10-05T22:50:46.746Z,12.92
2022-10-05T22:54:49.769Z,12.96
2022-10-05T22:58:51.905Z,12.84
2022-10-05T23:02:53.956Z,12.78
2022-10-05T23:06:56.958Z,12.88
2022-10-05T23:11:04.677Z,12.84
2022-10-05T23:15:07.547Z,12.72
2022-10-05T23:19:09.793Z,12.53
2022-10-05T23:23:11.723Z,12.53
2022-10-05T23:27:13.716Z,12.51
2022-10-05T23:31:18.621Z,12.57
2022-10-05T23:35:20.899Z,12.48
2022-10-05T23:39:23.272Z,12.43
2022-10-05T23:43:27.065Z,12.48
2022-10-05T23:47:29.168Z,12.55
2022-10-05T23:51:31.197Z,12.52
2022-10-05T23:55:33.240Z,12.47
2022-10-05T23:59:35.272Z,12.50
